createdAt,value
2023-12-27T00:08:17.013Z,2.37
2023-12-27T00:18:21.268Z,2.30
2023-12-27T00:28:24.342Z,2.29
2023-12-27T00:38:28.760Z,2.18
2023-12-27T00:48:31.752Z,2.10
2023-12-27T00:58:36.135Z,1.98
2023-12-27T01:08:39.471Z,2.06
2023-12-27T01:18:44.616Z,1.95
2023-12-27T01:28:47.436Z,1.87
2023-12-27T01:38:51.519Z,1.89
2023-12-27T01:48:54.470Z,2.04
2023-12-27T01:58:59.613Z,2.42
2023-12-27T02:09:02.815Z,2.77
2023-12-27T02:19:08.239Z,2.90
2023-12-27T02:29:12.642Z,3.21
2023-12-27T02:39:15.526Z,3.23
2023-12-27T02:49:19.740Z,3.21
2023-12-27T02:59:23.128Z,3.29
2023-12-27T03:09:27.368Z,3.30
2023-12-27T03:19:30.250Z,3.26
2023-12-27T03:29:34.415Z,3.18
2023-12-27T03:39:37.879Z,3.25
2023-12-27T03:49:42.076Z,3.39
2023-12-27T03:59:44.830Z,3.61
2023-12-27T04:09:48.900Z,3.80
2023-12-27T04:19:51.670Z,3.86
2023-12-27T04:29:55.801Z,4.00
2023-12-27T04:39:58.846Z,4.36
2023-12-27T04:50:03.127Z,4.40
2023-12-27T05:00:08.505Z,4.70
2023-12-27T05:10:12.791Z,4.82
2023-12-27T05:20:15.709Z,5.36
2023-12-27T05:30:19.896Z,5.57
2023-12-27T05:40:22.680Z,5.76
2023-12-27T05:50:26.890Z,5.88
2023-12-27T06:00:29.644Z,5.97
2023-12-27T06:10:34.308Z,5.93
2023-12-27T06:20:37.449Z,6.17
2023-12-27T06:30:41.688Z,6.22
2023-12-27T06:40:44.518Z,6.22
2023-12-27T06:50:50.123Z,6.24
2023-12-27T07:00:52.935Z,6.22
2023-12-27T07:10:57.183Z,6.23
2023-12-27T07:21:00.279Z,6.43
2023-12-27T07:31:04.667Z,6.29
2023-12-27T07:41:07.640Z,6.54
2023-12-27T07:51:11.748Z,6.64
2023-12-27T08:01:14.959Z,6.72
2023-12-27T08:11:19.058Z,6.87
2023-12-27T08:21:22.533Z,7.07
2023-12-27T08:31:26.682Z,7.35
2023-12-27T08:41:29.445Z,7.52
2023-12-27T08:51:33.572Z,7.54
2023-12-27T09:01:37.056Z,7.81
2023-12-27T09:11:42.722Z,8.11
2023-12-27T09:21:46.223Z,8.41
2023-12-27T09:31:50.664Z,8.51
2023-12-27T09:41:53.658Z,8.66
2023-12-27T09:51:59.457Z,8.67
2023-12-27T10:02:04.325Z,8.88
2023-12-27T10:12:09.760Z,9.07
2023-12-27T10:22:14.728Z,9.72
2023-12-27T10:32:19.479Z,9.72
2023-12-27T10:42:29.302Z,9.60
2023-12-27T10:52:36.280Z,9.54
2023-12-27T11:02:39.405Z,9.37
2023-12-27T11:12:47.742Z,9.60
2023-12-27T11:22:53.975Z,10.48
2023-12-27T11:33:02.168Z,11.35
2023-12-27T11:43:06.372Z,10.95
2023-12-27T11:53:13.984Z,11.05
2023-12-27T12:03:24.369Z,10.89
2023-12-27T12:13:29.022Z,11.25
2023-12-27T12:23:32.004Z,11.55
2023-12-27T12:33:41.967Z,11.55
2023-12-27T12:43:46.791Z,11.81
2023-12-27T12:53:50.908Z,11.38
2023-12-27T13:03:53.798Z,11.06
2023-12-27T13:13:59.946Z,10.91
2023-12-27T13:24:02.772Z,10.76
2023-12-27T13:34:07.472Z,10.56
2023-12-27T13:44:10.403Z,10.31
2023-12-27T13:54:24.320Z,9.95
2023-12-27T14:04:31.693Z,9.72
2023-12-27T14:14:36.267Z,9.61
2023-12-27T14:24:39.301Z,9.45
2023-12-27T14:34:43.545Z,9.40
2023-12-27T14:44:46.345Z,9.12
2023-12-27T14:54:50.880Z,9.02
2023-12-27T15:04:54.529Z,8.64
2023-12-27T15:14:58.962Z,8.52
2023-12-27T15:25:01.717Z,8.35
2023-12-27T15:35:07.312Z,8.18
2023-12-27T15:45:10.859Z,8.03
2023-12-27T15:55:18.513Z,7.90
2023-12-27T16:05:21.869Z,7.53
2023-12-27T16:15:26.121Z,7.56
2023-12-27T16:25:29.078Z,7.81
2023-12-27T16:35:40.139Z,7.46
2023-12-27T16:45:43.142Z,7.52
2023-12-27T16:55:47.877Z,7.37
2023-12-27T17:05:51.315Z,7.35
2023-12-27T17:15:57.270Z,7.28
2023-12-27T17:26:00.075Z,7.14
2023-12-27T17:36:04.634Z,7.03
2023-12-27T17:46:07.526Z,6.94
2023-12-27T17:56:11.639Z,7.02
2023-12-27T18:06:14.428Z,7.19
2023-12-27T18:16:18.608Z,7.04
2023-12-27T18:26:31.557Z,7.05
2023-12-27T18:36:43.127Z,6.95
2023-12-27T18:46:45.932Z,6.88
2023-12-27T18:56:50.169Z,6.61
2023-12-27T19:06:52.956Z,5.94
2023-12-27T19:16:57.272Z,5.44
2023-12-27T19:27:00.266Z,5.11
2023-12-27T19:37:04.484Z,5.08
2023-12-27T19:47:07.344Z,5.41
2023-12-27T19:57:11.552Z,5.05
2023-12-27T20:07:18.020Z,5.27
2023-12-27T20:17:22.357Z,5.02
2023-12-27T20:27:25.244Z,5.73
2023-12-27T20:37:30.147Z,5.62
2023-12-27T20:47:33.143Z,5.51
2023-12-27T20:57:37.600Z,5.48
2023-12-27T21:07:40.381Z,5.17
2023-12-27T21:17:44.521Z,4.74
2023-12-27T21:27:47.329Z,4.81
2023-12-27T21:37:51.442Z,4.89
2023-12-27T21:47:54.278Z,5.82
2023-12-27T21:57:58.688Z,6.82
2023-12-27T22:08:07.292Z,7.44
2023-12-27T22:18:14.692Z,8.06
2023-12-27T22:28:17.532Z,8.63
2023-12-27T22:38:24.033Z,8.98
2023-12-27T22:48:26.996Z,9.24
2023-12-27T22:58:31.140Z,9.46
2023-12-27T23:08:33.948Z,9.81
2023-12-27T23:18:38.127Z,10.06
2023-12-27T23:28:40.940Z,10.16
2023-12-27T23:38:45.061Z,10.22
2023-12-27T23:48:48.543Z,10.21
2023-12-27T23:58:52.711Z,10.21
